Time;durP1;ratioP1;P1;durP2;ratioP2;P2;SDS_P1;SDS_P2;PMS_P1;PMS_P2;Temp;Humidity;BMP_temperature;BMP_pressure;BME280_temperature;BME280_humidity;BME280_pressure;Samples;Min_cycle;Max_cycle;Signal;HPM_P1;HPM_P2
2023/07/23 00:00:27;;;;;;;13.82;5.82;;;;;;;23.96;100.00;101911.28;5052355;28;20078;-72
2023/07/23 00:02:52;;;;;;;15.90;5.00;;;;;;;24.21;100.00;101910.84;5052783;28;20475;-74
2023/07/23 00:05:18;;;;;;;12.73;4.68;;;;;;;24.02;100.00;102057.44;5052595;28;20032;-75
2023/07/23 00:07:44;;;;;;;13.38;4.85;;;;;;;23.60;100.00;102150.44;5052819;28;20025;-75
2023/07/23 00:10:09;;;;;;;10.07;4.65;;;;;;;23.73;100.00;102255.47;5052021;28;20556;-75
2023/07/23 00:12:35;;;;;;;11.00;4.07;;;;;;;24.03;100.00;102380.63;5052028;28;20025;-74
2023/07/23 00:15:02;;;;;;;13.25;4.75;;;;;;;23.74;100.00;102435.63;5053194;28;20082;-75
2023/07/23 00:17:27;;;;;;;15.70;5.57;;;;;;;24.37;100.00;102596.69;5055869;28;20029;-74
2023/07/23 00:19:53;;;;;;;14.32;5.80;;;;;;;23.88;100.00;102677.63;5056262;28;20039;-73
2023/07/23 00:22:19;;;;;;;13.60;6.18;;;;;;;23.54;100.00;102724.88;5071532;28;20040;-74
2023/07/23 00:24:45;;;;;;;17.25;6.80;;;;;;;23.56;100.00;102826.16;5071528;28;20021;-74
2023/07/23 00:27:12;;;;;;;15.00;6.70;;;;;;;24.07;100.00;102934.31;5066119;28;20028;-74
2023/07/23 00:29:38;;;;;;;14.45;6.93;;;;;;;23.81;100.00;102778.41;5056394;28;20052;-74
2023/07/23 00:32:04;;;;;;;22.23;6.53;;;;;;;24.19;100.00;102857.56;5055990;28;20021;-75
2023/07/23 00:34:29;;;;;;;14.95;6.50;;;;;;;24.94;100.00;102960.44;5071306;28;20390;-74
2023/07/23 00:40:16;;;;;;;21.30;6.95;;;;;;;24.97;100.00;102955.13;5056163;28;20394;-74
2023/07/23 00:42:42;;;;;;;25.20;7.53;;;;;;;25.86;100.00;103010.47;5055989;28;20025;-75
2023/07/23 00:45:07;;;;;;;23.52;8.63;;;;;;;24.79;100.00;102933.28;5056187;28;20033;-76
2023/07/23 00:47:33;;;;;;;31.02;10.23;;;;;;;23.95;100.00;102424.28;5056103;28;20115;-77
2023/07/23 00:53:21;;;;;;;17.90;7.22;;;;;;;21.94;100.00;104149.94;5055928;28;20032;-75
2023/07/23 00:55:47;;;;;;;15.40;6.85;;;;;;;22.70;100.00;101333.13;5055871;28;20117;-76
2023/07/23 00:58:13;;;;;;;15.90;7.18;;;;;;;23.56;100.00;100884.00;5056031;28;20368;-76
2023/07/23 01:00:39;;;;;;;12.30;6.70;;;;;;;23.59;100.00;100657.03;5056212;28;20025;-77
2023/07/23 01:06:27;;;;;;;14.18;6.25;;;;;;;24.06;100.00;101481.84;5055934;28;20113;-76
2023/07/23 01:12:16;;;;;;;13.90;6.50;;;;;;;24.29;100.00;101627.81;5055899;28;20035;-75
2023/07/23 01:17:46;;;;;;;14.80;6.80;;;;;;;24.24;100.00;101672.31;5055804;28;20086;-76
2023/07/23 01:20:12;;;;;;;13.02;6.57;;;;;;;23.82;100.00;101633.97;5055084;28;20025;-75
2023/07/23 01:22:37;;;;;;;13.98;7.10;;;;;;;23.94;100.00;101677.47;5054924;28;20036;-76
2023/07/23 01:25:06;;;;;;;17.77;7.65;;;;;;;23.92;100.00;101640.31;5055261;28;20394;-75
2023/07/23 01:27:32;;;;;;;16.10;7.13;;;;;;;24.54;100.00;101703.50;5069432;28;20032;-76
2023/07/23 01:29:58;;;;;;;18.13;8.10;;;;;;;23.91;100.00;101710.56;5055220;28;20040;-75
2023/07/23 01:32:23;;;;;;;17.65;7.93;;;;;;;23.89;100.00;101645.69;5055248;28;20036;-75
2023/07/23 01:34:49;;;;;;;15.68;7.70;;;;;;;24.36;100.00;101709.78;5054808;28;20024;-75
2023/07/23 01:37:15;;;;;;;16.08;7.78;;;;;;;23.67;100.00;101663.38;5054627;28;20494;-75
2023/07/23 01:39:42;;;;;;;12.48;7.00;;;;;;;24.20;100.00;101753.16;5054223;28;20057;-75
2023/07/23 01:45:29;;;;;;;18.73;7.60;;;;;;;23.46;100.00;101681.91;5054705;28;20083;-74
2023/07/23 01:51:17;;;;;;;16.48;7.72;;;;;;;24.42;100.00;101714.63;5054307;28;20120;-73
2023/07/23 01:53:42;;;;;;;12.63;6.68;;;;;;;24.44;100.00;101707.56;5054222;28;20127;-76
2023/07/23 01:56:07;;;;;;;13.43;7.20;;;;;;;24.05;100.00;101708.06;5069589;28;20059;-74
2023/07/23 02:01:55;;;;;;;12.95;7.65;;;;;;;23.91;100.00;101841.34;5054182;28;20183;-74
2023/07/23 02:04:20;;;;;;;16.63;7.78;;;;;;;23.70;100.00;101876.28;5053443;28;20083;-73
2023/07/23 02:06:46;;;;;;;12.60;7.03;;;;;;;23.88;100.00;101940.28;5053928;28;20021;-75
2023/07/23 02:09:11;;;;;;;16.23;7.55;;;;;;;23.93;100.00;102166.16;5053909;28;20033;-73
2023/07/23 02:14:58;;;;;;;16.75;7.90;;;;;;;23.86;100.00;102303.41;5054123;28;20035;-74
2023/07/23 02:17:24;;;;;;;11.70;7.60;;;;;;;23.99;100.00;102387.69;5053769;28;20115;-73
2023/07/23 02:19:50;;;;;;;13.90;7.28;;;;;;;23.59;100.00;102372.19;5069163;28;20448;-74
2023/07/23 02:22:15;;;;;;;11.35;6.85;;;;;;;23.89;100.00;102395.97;5053862;28;20052;-74
2023/07/23 02:24:40;;;;;;;12.85;7.07;;;;;;;24.03;100.00;102415.28;5053784;28;20029;-77
2023/07/23 02:27:06;;;;;;;12.70;7.65;;;;;;;24.29;100.00;102429.72;5054159;28;20027;-75
2023/07/23 02:29:32;;;;;;;13.57;7.00;;;;;;;23.94;100.00;102335.09;5054212;28;20049;-76
2023/07/23 02:31:57;;;;;;;13.07;6.95;;;;;;;23.92;100.00;102279.72;5053917;28;20025;-74
2023/07/23 02:34:22;;;;;;;15.25;7.65;;;;;;;23.53;100.00;102226.97;5053806;28;20132;-75
2023/07/23 02:36:48;;;;;;;20.20;8.63;;;;;;;23.34;100.00;102165.53;5069435;28;20442;-73
2023/07/23 02:39:13;;;;;;;17.70;7.47;;;;;;;23.74;100.00;102207.81;5052485;28;20380;-73
2023/07/23 02:41:39;;;;;;;16.42;7.07;;;;;;;23.82;100.00;102225.63;5053651;28;20474;-74
2023/07/23 02:44:05;;;;;;;14.35;7.30;;;;;;;24.03;100.00;102267.09;5053002;28;20029;-74
2023/07/23 02:46:30;;;;;;;14.50;7.25;;;;;;;23.67;100.00;102228.97;5052771;28;20039;-73
2023/07/23 02:52:18;;;;;;;19.23;7.93;;;;;;;23.78;100.00;102087.22;5053825;28;20085;-73
2023/07/23 02:54:43;;;;;;;16.40;7.93;;;;;;;23.81;100.00;102036.84;5052722;28;20033;-73
2023/07/23 02:57:08;;;;;;;13.70;8.23;;;;;;;23.93;100.00;102046.59;5052948;28;20036;-73
2023/07/23 02:59:34;;;;;;;18.88;8.10;;;;;;;23.99;100.00;102073.13;5068616;28;20087;-73
2023/07/23 03:05:24;;;;;;;14.02;8.10;;;;;;;24.12;100.00;102120.22;5053319;28;20046;-72
2023/07/23 03:07:51;;;;;;;16.20;8.05;;;;;;;23.90;100.00;102114.34;5035016;28;20028;-73
2023/07/23 03:10:17;;;;;;;14.95;8.15;;;;;;;24.00;100.00;102056.63;5053090;28;20124;-74
2023/07/23 03:16:04;;;;;;;15.40;8.40;;;;;;;24.26;100.00;102119.50;5053481;28;20035;-73
2023/07/23 03:21:51;;;;;;;14.85;8.43;;;;;;;23.62;100.00;102112.25;5053261;28;20110;-75
2023/07/23 03:24:16;;;;;;;14.27;8.40;;;;;;;23.79;100.00;102130.44;5051982;28;20025;-72
2023/07/23 03:26:41;;;;;;;14.88;8.07;;;;;;;23.68;100.00;102108.50;5052985;28;20032;-72
2023/07/23 03:29:07;;;;;;;12.95;7.45;;;;;;;23.49;100.00;102058.34;5068179;28;20048;-76
2023/07/23 03:34:54;;;;;;;12.27;6.88;;;;;;;24.15;100.00;102125.25;5053303;28;20036;-75
2023/07/23 03:37:20;;;;;;;10.90;6.80;;;;;;;23.72;100.00;102146.41;5051952;28;20033;-72
2023/07/23 03:39:45;;;;;;;13.25;6.82;;;;;;;23.65;100.00;102145.84;5052403;28;20028;-74
2023/07/23 03:42:10;;;;;;;13.57;7.38;;;;;;;23.80;100.00;102158.13;5075014;28;20052;-74
2023/07/23 03:47:58;;;;;;;9.77;6.72;;;;;;;23.61;100.00;102128.72;5052609;28;20036;-78
2023/07/23 03:50:24;;;;;;;13.48;7.50;;;;;;;23.73;100.00;102120.34;5054010;28;20029;-74
2023/07/23 03:52:49;;;;;;;12.90;6.82;;;;;;;24.26;100.00;102234.78;5057069;28;20029;-74
2023/07/23 03:55:15;;;;;;;13.60;6.22;;;;;;;23.90;100.00;102171.53;5057198;28;20028;-77
2023/07/23 04:01:02;;;;;;;12.38;6.63;;;;;;;24.01;100.00;102174.44;5057194;28;20090;-75
2023/07/23 04:03:27;;;;;;;11.60;6.70;;;;;;;24.27;100.00;102228.66;5056736;28;20029;-77
2023/07/23 04:05:52;;;;;;;12.88;6.63;;;;;;;24.38;100.00;102262.81;5056374;28;20071;-75
2023/07/23 04:08:18;;;;;;;13.65;6.70;;;;;;;24.14;100.00;102198.13;5072162;28;20122;-76
2023/07/23 04:14:06;;;;;;;11.68;6.85;;;;;;;24.73;100.00;102266.28;5056683;28;20040;-76
2023/07/23 04:19:53;;;;;;;12.00;6.90;;;;;;;24.74;100.00;102286.22;5056722;28;20116;-75
2023/07/23 04:22:19;;;;;;;13.82;7.18;;;;;;;24.59;100.00;102292.13;5056189;28;20450;-76
2023/07/23 04:24:44;;;;;;;11.32;7.70;;;;;;;24.25;100.00;102246.09;5056987;28;20032;-74
2023/07/23 04:27:10;;;;;;;12.80;8.15;;;;;;;24.67;100.00;102287.38;5056744;28;20021;-75
2023/07/23 04:29:35;;;;;;;11.13;7.60;;;;;;;24.74;100.00;102278.41;5055581;28;20088;-75
2023/07/23 04:32:00;;;;;;;14.43;7.97;;;;;;;24.91;100.00;102297.47;5056292;28;20399;-74
2023/07/23 04:34:26;;;;;;;13.75;7.82;;;;;;;24.69;100.00;102267.31;5056234;28;20052;-75
2023/07/23 04:40:13;;;;;;;15.30;8.48;;;;;;;25.26;100.00;102316.47;5056642;28;20047;-76
2023/07/23 04:42:38;;;;;;;13.27;9.00;;;;;;;24.93;100.00;102255.72;5055705;28;20029;-75
2023/07/23 04:45:04;;;;;;;12.35;8.55;;;;;;;25.30;100.00;102302.38;5071627;28;20419;-76
2023/07/23 04:47:29;;;;;;;13.65;8.40;;;;;;;25.54;100.00;102277.66;5071541;28;20028;-76
2023/07/23 04:53:18;;;;;;;10.73;8.32;;;;;;;25.83;100.00;102234.34;5056311;28;20084;-77
2023/07/23 04:55:44;;;;;;;13.32;8.30;;;;;;;26.22;100.00;102226.97;5056161;28;20025;-76
2023/07/23 04:58:09;;;;;;;15.23;8.90;;;;;;;25.76;100.00;102170.47;5056201;28;20078;-77
2023/07/23 05:03:56;;;;;;;15.43;9.88;;;;;;;26.11;100.00;102156.28;5056522;28;20485;-77
2023/07/23 05:06:23;;;;;;;16.27;9.05;;;;;;;26.33;100.00;102181.97;5056100;28;20025;-76
2023/07/23 05:08:48;;;;;;;14.23;8.63;;;;;;;26.59;100.00;102208.22;5055432;28;20469;-75
2023/07/23 05:11:14;;;;;;;14.60;9.10;;;;;;;26.92;100.00;102210.59;5056123;28;20025;-75
2023/07/23 05:13:39;;;;;;;13.57;8.50;;;;;;;26.61;100.00;102171.56;5055685;28;20024;-75
2023/07/23 05:16:05;;;;;;;12.48;8.10;;;;;;;26.54;100.00;102112.84;5053808;28;20048;-75
2023/07/23 05:18:31;;;;;;;10.60;7.65;;;;;;;26.59;100.00;102102.97;5037970;28;20025;-76
2023/07/23 05:20:57;;;;;;;11.80;7.70;;;;;;;26.85;100.00;102149.25;5055414;28;20029;-76
2023/07/23 05:23:22;;;;;;;12.40;8.30;;;;;;;27.44;100.00;102116.78;5055478;28;20181;-75
2023/07/23 05:25:48;;;;;;;17.70;8.23;;;;;;;27.18;100.00;102045.25;5037741;28;20521;-76
2023/07/23 05:28:14;;;;;;;10.52;7.75;;;;;;;27.28;100.00;102025.44;5037457;28;20033;-76
2023/07/23 05:30:40;;;;;;;10.77;7.55;;;;;;;27.62;100.00;102031.94;5070625;28;20045;-76
2023/07/23 05:33:05;;;;;;;11.57;7.63;;;;;;;27.59;100.00;101956.31;5055349;28;20067;-75
2023/07/23 05:35:31;;;;;;;11.95;7.43;;;;;;;27.81;100.00;101948.66;5055293;28;20021;-75
2023/07/23 05:37:56;;;;;;;14.95;7.80;;;;;;;27.86;100.00;101864.66;5055413;28;20025;-76
2023/07/23 05:43:43;;;;;;;;;;;;;;;28.05;100.00;101718.53;5055497;28;20044;-75
2023/07/23 05:46:09;;;;;;;12.90;7.63;;;;;;;27.72;100.00;101629.44;5055018;28;19908;-75
2023/07/23 05:48:34;;;;;;;13.85;7.15;;;;;;;28.20;100.00;101642.41;5054847;28;20291;-75
2023/07/23 05:51:00;;;;;;;12.07;6.80;;;;;;;28.33;100.00;101603.03;5054740;28;20048;-76
2023/07/23 05:53:25;;;;;;;14.40;7.25;;;;;;;28.34;100.00;101554.13;5054934;28;20056;-75
2023/07/23 05:55:50;;;;;;;13.20;6.60;;;;;;;28.64;100.00;101547.41;5054825;28;20112;-76
2023/07/23 05:58:16;;;;;;;12.00;6.72;;;;;;;28.74;100.00;101490.69;5037114;28;20459;-75
2023/07/23 06:04:03;;;;;;;;;;;;;;;28.64;100.00;101402.53;5055250;28;20031;-76
2023/07/23 06:06:29;;;;;;;14.35;6.65;;;;;;;29.05;100.00;101387.72;5054544;28;19998;-75
2023/07/23 06:08:56;;;;;;;10.60;6.65;;;;;;;28.91;100.00;101346.13;5070279;28;20059;-76
2023/07/23 06:11:22;;;;;;;11.18;6.50;;;;;;;28.64;100.00;101337.91;5054185;28;20116;-77
2023/07/23 06:13:47;;;;;;;12.23;6.07;;;;;;;29.21;100.00;101319.16;5035611;28;20061;-74
2023/07/23 06:16:13;;;;;;;14.68;7.30;;;;;;;27.68;100.00;101241.03;5036369;28;20033;-77
2023/07/23 06:18:39;;;;;;;13.38;7.00;;;;;;;27.42;100.00;101290.13;5054104;28;20060;-75
2023/07/23 06:24:26;;;;;;;11.10;7.00;;;;;;;28.69;100.00;101295.59;5054182;28;20064;-78
2023/07/23 06:26:51;;;;;;;13.13;7.00;;;;;;;28.59;100.00;101256.28;5035771;28;20115;-73
2023/07/23 06:29:16;;;;;;;14.15;6.80;;;;;;;28.61;100.00;101215.06;5053367;28;20136;-73
2023/07/23 06:31:42;;;;;;;14.73;6.65;;;;;;;29.36;100.00;101293.44;5053673;28;20534;-73
2023/07/23 06:34:09;;;;;;;13.02;6.55;;;;;;;29.35;100.00;101221.84;5054148;28;20025;-74
2023/07/23 06:36:34;;;;;;;10.68;6.63;;;;;;;29.32;100.00;101200.28;5069357;28;20031;-74
2023/07/23 06:39:00;;;;;;;12.45;6.28;;;;;;;30.09;100.00;101244.09;5053831;28;20116;-75
2023/07/23 06:41:27;;;;;;;11.60;6.40;;;;;;;29.30;100.00;101217.94;5053203;28;20027;-73
2023/07/23 06:43:53;;;;;;;13.63;6.95;;;;;;;29.93;100.00;101165.13;5053830;28;20029;-75
2023/07/23 06:46:20;;;;;;;12.52;6.53;;;;;;;30.27;100.00;101212.75;5053150;28;20028;-75
2023/07/23 06:52:07;;;;;;;;;;;;;;;30.09;100.00;101209.19;5053955;28;20082;-74
2023/07/23 06:57:53;;;;;;;12.40;6.30;;;;;;;30.18;100.00;101164.56;5053825;28;20533;-75
2023/07/23 07:00:19;;;;;;;14.65;6.55;;;;;;;30.24;100.00;101190.25;5072248;28;20025;-75
2023/07/23 07:02:44;;;;;;;12.00;6.50;;;;;;;30.68;100.00;101146.78;5073558;28;20024;-74
2023/07/23 07:05:10;;;;;;;14.00;6.50;;;;;;;30.24;100.00;101177.13;5053104;28;20032;-75
2023/07/23 07:11:01;;;;;;;;;;;;;;;30.34;100.00;101266.41;5053977;28;20074;-75
2023/07/23 07:13:28;;;;;;;15.35;6.63;;;;;;;31.38;100.00;101291.72;5035241;28;19916;-75
2023/07/23 07:15:53;;;;;;;11.82;6.53;;;;;;;31.25;100.00;101259.63;5053035;28;20079;-75
2023/07/23 07:18:18;;;;;;;10.20;5.88;;;;;;;30.55;100.00;101296.81;5052793;28;20430;-73
2023/07/23 07:20:44;;;;;;;11.63;6.10;;;;;;;31.53;100.00;101269.25;5052658;28;20025;-72
2023/07/23 07:23:09;;;;;;;12.48;6.32;;;;;;;31.56;100.00;101478.56;5052860;28;20025;-74
2023/07/23 07:25:36;;;;;;;11.20;6.63;;;;;;;31.67;100.00;101736.31;5052900;28;20021;-75
2023/07/23 07:31:24;;;;;;;14.85;6.90;;;;;;;32.75;100.00;102023.41;5051567;28;20102;-74
2023/07/23 07:33:49;;;;;;;12.55;6.50;;;;;;;31.93;100.00;101927.03;5053129;28;20467;-75
2023/07/23 07:36:16;;;;;;;13.50;5.95;;;;;;;32.47;100.00;101982.00;5053473;28;20090;-74
2023/07/23 07:38:42;;;;;;;12.13;6.50;;;;;;;32.60;100.00;102026.56;5052995;28;20028;-72
2023/07/23 07:41:08;;;;;;;12.50;6.65;;;;;;;32.86;100.00;103043.06;5052873;28;20029;-74
2023/07/23 07:43:34;;;;;;;12.65;7.00;;;;;;;32.14;100.00;103122.88;5052161;28;20039;-73
2023/07/23 07:46:00;;;;;;;14.02;6.55;;;;;;;32.55;100.00;103181.50;5052619;28;20533;-74
2023/07/23 07:48:27;;;;;;;13.95;7.18;;;;;;;31.96;100.00;102966.94;5052382;28;20031;-73
2023/07/23 07:51:00;;;;;;;16.10;6.70;;;;;;;31.28;100.00;102810.28;5052174;28;20526;-73
2023/07/23 07:56:47;;;;;;;12.73;6.82;;;;;;;31.71;100.00;102735.28;5052883;28;20117;-74
2023/07/23 08:02:34;;;;;;;;;;;;;;;32.54;100.00;102900.38;5053094;28;20064;-74
2023/07/23 08:04:59;;;;;;;16.75;6.72;;;;;;;32.23;100.00;102972.88;5052579;28;19905;-74
2023/07/23 08:07:25;;;;;;;14.13;7.38;;;;;;;31.34;100.00;102926.47;5052696;28;20024;-74
2023/07/23 08:09:53;;;;;;;15.00;7.18;;;;;;;32.23;100.00;102964.97;5052408;28;20025;-74
2023/07/23 08:15:40;;;;;;;14.18;7.63;;;;;;;33.24;100.00;103532.00;5052981;28;20043;-75
2023/07/23 08:18:07;;;;;;;16.42;7.72;;;;;;;33.05;100.00;103600.16;5052042;28;20021;-74
2023/07/23 08:20:34;;;;;;;16.08;7.60;;;;;;;31.94;100.00;103473.69;5052074;28;20028;-75
2023/07/23 08:23:01;;;;;;;13.73;7.60;;;;;;;32.53;100.00;103357.41;5052827;28;20024;-75
2023/07/23 08:28:51;;;;;;;11.68;7.25;;;;;;;32.70;100.00;101907.00;5052773;28;20055;-75
2023/07/23 08:31:18;;;;;;;12.27;6.70;;;;;;;32.19;100.00;102072.28;5052401;28;20124;-74
2023/07/23 08:33:46;;;;;;;9.52;6.78;;;;;;;32.25;100.00;102019.88;5052400;28;20037;-76
2023/07/23 08:36:12;;;;;;;10.98;6.28;;;;;;;32.60;100.00;101965.94;5053706;28;20065;-74
2023/07/23 08:38:38;;;;;;;9.77;6.85;;;;;;;32.01;100.00;101900.06;5055318;28;20064;-74
2023/07/23 08:41:16;;;;;;;8.15;6.22;;;;;;;31.93;100.00;101877.00;5055873;28;20025;-75
2023/07/23 08:47:12;;;;;;;14.90;7.53;;;;;;;32.47;100.00;101660.50;5055543;28;20115;-74
2023/07/23 08:49:40;;;;;;;11.48;7.07;;;;;;;33.04;100.00;101264.75;5055031;28;20033;-74
2023/07/23 08:52:06;;;;;;;10.07;6.57;;;;;;;33.26;100.00;101020.69;5055090;28;20025;-74
2023/07/23 08:54:32;;;;;;;10.10;6.50;;;;;;;32.75;100.00;100836.41;5055633;28;20092;-75
2023/07/23 08:56:58;;;;;;;9.77;6.55;;;;;;;32.65;100.00;100783.03;5055222;28;20090;-74
2023/07/23 08:59:26;;;;;;;10.05;5.85;;;;;;;32.81;100.00;100696.88;5055040;28;20072;-74
2023/07/23 09:01:52;;;;;;;8.45;5.90;;;;;;;32.39;100.00;100615.44;5055472;28;20021;-75
2023/07/23 09:07:39;;;;;;;;;;;;;;;33.41;100.00;100612.78;5056120;28;20116;-74
2023/07/23 09:10:07;;;;;;;8.98;5.90;;;;;;;33.42;100.00;100601.22;5054695;28;20371;-74
2023/07/23 09:12:33;;;;;;;10.40;6.03;;;;;;;33.24;100.00;100590.94;5055223;28;20103;-75
2023/07/23 09:15:03;;;;;;;7.95;5.40;;;;;;;33.70;100.00;100599.75;5054777;28;20028;-73
2023/07/23 09:17:28;;;;;;;8.23;6.00;;;;;;;32.65;100.00;100525.66;5054952;28;20025;-73
2023/07/23 09:19:54;;;;;;;8.57;6.25;;;;;;;33.29;100.00;100513.94;5055163;28;20039;-74
2023/07/23 09:22:19;;;;;;;6.80;5.80;;;;;;;33.34;100.00;100489.69;5055220;28;20070;-73
2023/07/23 09:24:45;;;;;;;9.65;5.78;;;;;;;32.73;100.00;100469.44;5070442;28;20017;-75
2023/07/23 09:27:11;;;;;;;9.02;6.20;;;;;;;33.34;100.00;100495.75;5055666;28;20025;-75
2023/07/23 09:29:39;;;;;;;7.97;5.57;;;;;;;32.89;100.00;100457.00;5055301;28;20114;-76
2023/07/23 09:35:33;;;;;;;6.82;5.63;;;;;;;33.38;100.00;100480.44;5055185;28;20028;-75
2023/07/23 09:37:59;;;;;;;8.38;5.93;;;;;;;33.09;100.00;100467.94;5070423;28;20033;-75
2023/07/23 09:40:35;;;;;;;7.05;6.10;;;;;;;33.28;100.00;100464.81;5054566;28;20028;-74
2023/07/23 09:43:01;;;;;;;8.23;6.45;;;;;;;33.47;100.00;100482.81;5036802;28;20032;-74
2023/07/23 09:45:30;;;;;;;8.30;6.63;;;;;;;33.62;100.00;100554.13;5036593;28;20029;-75
2023/07/23 09:48:00;;;;;;;8.70;5.75;;;;;;;33.26;100.00;100544.13;5053647;28;20029;-75
2023/07/23 09:53:48;;;;;;;7.95;5.95;;;;;;;33.28;100.00;100576.41;5054615;28;20035;-73
2023/07/23 09:59:36;;;;;;;8.55;6.53;;;;;;;33.34;100.00;100531.91;5054282;28;20494;-73
2023/07/23 10:02:03;;;;;;;8.90;6.38;;;;;;;33.19;100.00;100577.47;5053995;28;20464;-73
2023/07/23 10:04:30;;;;;;;9.32;7.00;;;;;;;33.41;100.00;100527.53;5054120;28;20472;-73
2023/07/23 10:06:55;;;;;;;9.88;6.90;;;;;;;33.54;100.00;100549.72;5053747;28;20059;-72
2023/07/23 10:09:22;;;;;;;8.88;6.40;;;;;;;32.84;100.00;100500.69;5035287;28;20460;-73
2023/07/23 10:11:47;;;;;;;10.13;6.45;;;;;;;33.52;100.00;100511.31;5053844;28;20031;-73
2023/07/23 10:14:14;;;;;;;8.30;6.47;;;;;;;34.38;100.00;100552.09;5053295;28;20048;-73
2023/07/23 10:16:42;;;;;;;10.05;6.78;;;;;;;33.88;100.00;100541.34;5055713;28;20025;-75
2023/07/23 10:19:09;;;;;;;10.05;6.80;;;;;;;33.57;100.00;100487.88;5060547;28;20395;-74
2023/07/23 10:21:36;;;;;;;10.45;7.10;;;;;;;33.63;100.00;100526.75;5055345;28;20028;-74
2023/07/23 10:27:23;;;;;;;8.85;6.47;;;;;;;33.43;100.00;100475.44;5053960;28;20067;-74
2023/07/23 10:37:12;;;;;;;10.10;5.95;;;;;;;34.21;100.00;100508.34;5053686;28;20039;-74
2023/07/23 10:39:40;;;;;;;8.40;6.57;;;;;;;33.48;100.00;100459.94;5053469;28;20036;-74
2023/07/23 10:42:05;;;;;;;7.47;5.45;;;;;;;34.72;100.00;100504.00;5053011;28;20020;-73
2023/07/23 10:44:31;;;;;;;9.27;6.38;;;;;;;33.58;100.00;100489.50;5052921;28;20050;-73
2023/07/23 10:46:58;;;;;;;9.05;6.43;;;;;;;34.29;100.00;100495.06;5068628;28;20025;-73
2023/07/23 10:49:27;;;;;;;14.98;6.47;;;;;;;34.01;100.00;100505.44;5052860;28;20471;-73
2023/07/23 10:51:53;;;;;;;7.47;6.15;;;;;;;33.47;100.00;100485.44;5053273;28;20478;-74
2023/07/23 10:54:20;;;;;;;6.93;6.22;;;;;;;33.78;100.00;100475.63;5053110;28;20029;-74
2023/07/23 10:56:48;;;;;;;9.73;6.40;;;;;;;33.69;100.00;100458.25;5052899;28;20021;-74
2023/07/23 11:02:46;;;;;;;12.68;7.15;;;;;;;33.67;100.00;100468.16;5053244;28;20553;-74
2023/07/23 11:05:11;;;;;;;8.77;7.18;;;;;;;34.00;100.00;100479.22;5053123;28;20108;-74
2023/07/23 11:07:38;;;;;;;9.00;6.43;;;;;;;33.62;100.00;100464.38;5068585;28;20053;-74
2023/07/23 11:10:22;;;;;;;8.20;6.55;;;;;;;34.15;100.00;100522.28;5053240;28;20135;-75
2023/07/23 11:12:48;;;;;;;9.10;6.00;;;;;;;34.15;100.00;100464.19;5052901;28;20017;-74
2023/07/23 11:15:15;;;;;;;8.32;6.32;;;;;;;34.16;100.00;100510.75;5052994;28;20438;-75
2023/07/23 11:17:40;;;;;;;8.32;6.30;;;;;;;33.80;100.00;100462.25;5053087;28;20036;-74
2023/07/23 11:20:07;;;;;;;7.95;5.93;;;;;;;33.49;100.00;100501.13;5034917;28;20025;-75
2023/07/23 11:22:32;;;;;;;8.95;6.28;;;;;;;33.87;100.00;100503.56;5053183;28;20028;-74
2023/07/23 11:24:57;;;;;;;8.15;6.20;;;;;;;34.05;100.00;100461.03;5052830;28;20024;-75
2023/07/23 11:27:23;;;;;;;8.02;6.57;;;;;;;33.74;100.00;100463.78;5052811;28;20032;-75
2023/07/23 11:29:48;;;;;;;8.32;6.18;;;;;;;33.82;100.00;100495.38;5053171;28;20035;-74
2023/07/23 11:32:14;;;;;;;8.55;6.22;;;;;;;33.62;100.00;100517.16;5052615;28;20048;-75
2023/07/23 11:34:40;;;;;;;6.78;6.05;;;;;;;33.52;100.00;100451.47;5034772;28;20039;-74
2023/07/23 11:37:08;;;;;;;8.85;6.30;;;;;;;33.66;100.00;100502.63;5052713;28;20112;-75
2023/07/23 11:39:34;;;;;;;7.15;6.25;;;;;;;34.12;100.00;100479.59;5052727;28;20029;-75
2023/07/23 11:45:21;;;;;;;7.40;6.40;;;;;;;33.93;100.00;100502.84;5052784;28;20060;-75
2023/07/23 11:47:50;;;;;;;9.07;6.28;;;;;;;33.63;100.00;100501.19;5051934;28;20086;-74
2023/07/23 11:50:16;;;;;;;8.02;5.97;;;;;;;33.59;100.00;100510.44;5052359;28;20021;-75
2023/07/23 11:52:42;;;;;;;6.28;5.32;;;;;;;33.97;100.00;100513.91;5052115;28;20029;-75
2023/07/23 11:58:29;;;;;;;10.40;5.50;;;;;;;33.36;100.00;100445.50;5052709;28;20553;-74
2023/07/23 12:00:54;;;;;;;7.28;5.40;;;;;;;33.63;100.00;100482.72;5052452;28;20029;-74
2023/07/23 12:03:20;;;;;;;7.38;5.57;;;;;;;33.90;100.00;100487.38;5052931;28;20036;-73
2023/07/23 12:05:45;;;;;;;8.15;5.20;;;;;;;32.77;100.00;100403.06;5051955;28;20028;-74
2023/07/23 12:08:11;;;;;;;7.28;5.25;;;;;;;33.80;100.00;100493.91;5052300;28;20028;-73
2023/07/23 12:10:37;;;;;;;7.13;5.15;;;;;;;33.39;100.00;100460.94;5052572;28;20028;-74
2023/07/23 12:13:09;;;;;;;7.40;5.43;;;;;;;33.49;100.00;100438.63;5056807;28;20087;-73
2023/07/23 12:19:03;;;;;;;7.80;5.18;;;;;;;33.67;100.00;100470.78;5056452;28;20027;-74
2023/07/23 12:21:29;;;;;;;6.60;5.63;;;;;;;32.99;100.00;100430.44;5071727;28;20486;-74
2023/07/23 12:23:54;;;;;;;8.27;6.07;;;;;;;34.24;100.00;100488.69;5055891;28;20033;-74
2023/07/23 12:26:20;;;;;;;7.57;5.43;;;;;;;33.98;100.00;100489.16;5055693;28;20024;-75
2023/07/23 12:28:45;;;;;;;7.72;5.40;;;;;;;33.55;100.00;100439.72;5055650;28;20394;-74
2023/07/23 12:31:11;;;;;;;6.75;5.43;;;;;;;33.70;100.00;100466.97;5072009;28;20025;-75
2023/07/23 12:33:36;;;;;;;9.65;5.20;;;;;;;33.38;100.00;100460.13;5055757;28;20469;-74
2023/07/23 12:36:03;;;;;;;53.65;8.10;;;;;;;33.30;100.00;100446.19;5055943;28;20036;-74
2023/07/23 12:38:28;;;;;;;11.25;5.25;;;;;;;33.35;100.00;100468.41;5038113;28;20036;-75
2023/07/23 12:40:54;;;;;;;6.53;5.13;;;;;;;33.47;100.00;100456.44;5055746;28;20025;-74
2023/07/23 12:43:19;;;;;;;6.55;5.07;;;;;;;33.21;100.00;100455.97;5056137;28;20024;-75
2023/07/23 12:49:06;;;;;;;6.95;5.10;;;;;;;33.21;100.00;100427.81;5055914;28;20060;-75
2023/07/23 12:54:54;;;;;;;5.80;5.20;;;;;;;33.10;100.00;100406.31;5056040;28;20043;-75
2023/07/23 12:57:22;;;;;;;6.28;4.90;;;;;;;33.43;100.00;100418.22;5037682;28;20063;-75
2023/07/23 12:59:49;;;;;;;7.20;5.40;;;;;;;33.37;100.00;100447.13;5071338;28;20025;-75
2023/07/23 13:02:14;;;;;;;7.07;4.57;;;;;;;32.98;100.00;100405.09;5055670;28;20024;-75
2023/07/23 13:04:44;;;;;;;6.65;4.72;;;;;;;33.66;100.00;100458.59;5055254;28;20399;-75
2023/07/23 13:07:10;;;;;;;5.78;5.10;;;;;;;33.60;100.00;100416.25;5055571;28;20021;-75
2023/07/23 13:09:35;;;;;;;6.18;5.15;;;;;;;33.60;100.00;100459.31;5037237;28;20032;-75
2023/07/23 13:15:23;;;;;;;5.80;5.20;;;;;;;33.90;100.00;100474.19;5055534;28;20035;-75
2023/07/23 13:17:48;;;;;;;6.85;4.90;;;;;;;33.60;100.00;100461.09;5036700;28;20025;-75
2023/07/23 13:20:13;;;;;;;5.93;4.97;;;;;;;33.79;100.00;100439.50;5055371;28;20029;-75
2023/07/23 13:22:39;;;;;;;7.88;5.03;;;;;;;33.67;100.00;100454.97;5054638;28;20539;-75
2023/07/23 13:25:05;;;;;;;5.38;4.63;;;;;;;33.79;100.00;100452.69;5054978;28;20048;-75
2023/07/23 13:27:30;;;;;;;6.03;5.03;;;;;;;33.46;100.00;100465.34;5070240;28;20117;-75
2023/07/23 13:29:55;;;;;;;7.03;4.70;;;;;;;33.32;100.00;100425.75;5055261;28;20033;-75
2023/07/23 13:32:21;;;;;;;6.40;4.95;;;;;;;32.94;100.00;100420.38;5054988;28;20450;-75
2023/07/23 13:34:46;;;;;;;5.63;5.07;;;;;;;33.10;100.00;100415.03;5062897;28;20445;-76
2023/07/23 13:37:12;;;;;;;5.82;5.22;;;;;;;33.51;100.00;100464.84;5059075;28;20027;-75
2023/07/23 13:39:37;;;;;;;9.98;5.55;;;;;;;33.32;100.00;100478.50;5055001;28;20031;-75
2023/07/23 13:45:24;;;;;;;6.07;4.82;;;;;;;33.38;100.00;100436.38;5054888;28;20564;-75
2023/07/23 13:51:11;;;;;;;6.22;4.85;;;;;;;33.72;100.00;100473.69;5054969;28;20078;-75
2023/07/23 13:53:36;;;;;;;6.72;4.55;;;;;;;32.78;100.00;100403.88;5054813;28;20024;-75